sensor_id;sensor_type;location;lat;lon;timestamp;temperature;humidity
43858;DHT22;29507;51.284;5.758;2023-05-09T00:01:13;14.30;99.90
43858;DHT22;29507;51.284;5.758;2023-05-09T00:03:39;14.30;99.90
43858;DHT22;29507;51.284;5.758;2023-05-09T00:06:07;14.30;99.90
43858;DHT22;29507;51.284;5.758;2023-05-09T00:08:33;14.30;99.90
43858;DHT22;29507;51.284;5.758;2023-05-09T00:11:00;14.30;99.90
43858;DHT22;29507;51.284;5.758;2023-05-09T00:13:25;14.20;99.90
43858;DHT22;29507;51.284;5.758;2023-05-09T00:15:51;14.20;99.90
43858;DHT22;29507;51.284;5.758;2023-05-09T00:18:19;14.20;99.90
43858;DHT22;29507;51.284;5.758;2023-05-09T00:20:46;14.20;99.90
43858;DHT22;29507;51.284;5.758;2023-05-09T00:23:12;14.20;99.90
43858;DHT22;29507;51.284;5.758;2023-05-09T00:25:38;14.20;99.90
43858;DHT22;29507;51.284;5.758;2023-05-09T00:28:04;14.20;99.90
43858;DHT22;29507;51.284;5.758;2023-05-09T00:30:30;14.20;99.90
43858;DHT22;29507;51.284;5.758;2023-05-09T00:32:55;14.20;99.90
43858;DHT22;29507;51.284;5.758;2023-05-09T00:35:21;14.20;99.90
43858;DHT22;29507;51.284;5.758;2023-05-09T00:37:47;14.20;99.90
43858;DHT22;29507;51.284;5.758;2023-05-09T00:40:12;14.20;99.90
43858;DHT22;29507;51.284;5.758;2023-05-09T00:42:38;14.20;99.90
43858;DHT22;29507;51.284;5.758;2023-05-09T00:45:04;14.20;99.90
43858;DHT22;29507;51.284;5.758;2023-05-09T00:47:30;14.20;99.90
43858;DHT22;29507;51.284;5.758;2023-05-09T00:49:56;14.20;99.90
43858;DHT22;29507;51.284;5.758;2023-05-09T00:52:24;14.20;99.90
43858;DHT22;29507;51.284;5.758;2023-05-09T00:54:54;14.10;99.90
43858;DHT22;29507;51.284;5.758;2023-05-09T00:57:21;14.10;99.90
43858;DHT22;29507;51.284;5.758;2023-05-09T00:59:47;14.10;99.90
43858;DHT22;29507;51.284;5.758;2023-05-09T01:02:14;14.10;99.90
43858;DHT22;29507;51.284;5.758;2023-05-09T01:04:40;14.10;99.90
43858;DHT22;29507;51.284;5.758;2023-05-09T01:10:11;13.90;99.90
43858;DHT22;29507;51.284;5.758;2023-05-09T01:21:08;13.80;99.90
43858;DHT22;29507;51.284;5.758;2023-05-09T01:26:17;13.80;99.90
43858;DHT22;29507;51.284;5.758;2023-05-09T01:31:28;13.70;99.90
43858;DHT22;29507;51.284;5.758;2023-05-09T01:33:57;13.70;99.90
43858;DHT22;29507;51.284;5.758;2023-05-09T01:36:26;13.60;99.90
43858;DHT22;29507;51.284;5.758;2023-05-09T01:38:56;13.60;99.90
43858;DHT22;29507;51.284;5.758;2023-05-09T01:41:22;13.60;99.90
43858;DHT22;29507;51.284;5.758;2023-05-09T01:43:51;13.60;99.90
43858;DHT22;29507;51.284;5.758;2023-05-09T01:46:18;13.60;99.90
43858;DHT22;29507;51.284;5.758;2023-05-09T01:48:47;13.60;99.90
43858;DHT22;29507;51.284;5.758;2023-05-09T01:51:14;13.60;99.90
43858;DHT22;29507;51.284;5.758;2023-05-09T01:53:41;13.60;99.90
43858;DHT22;29507;51.284;5.758;2023-05-09T01:56:08;13.60;99.90
43858;DHT22;29507;51.284;5.758;2023-05-09T01:58:37;13.60;99.90
43858;DHT22;29507;51.284;5.758;2023-05-09T02:01:04;13.70;99.90
43858;DHT22;29507;51.284;5.758;2023-05-09T02:03:31;13.70;99.90
43858;DHT22;29507;51.284;5.758;2023-05-09T02:05:58;13.70;99.90
43858;DHT22;29507;51.284;5.758;2023-05-09T02:08:25;13.70;99.90
43858;DHT22;29507;51.284;5.758;2023-05-09T02:10:51;13.80;99.90
43858;DHT22;29507;51.284;5.758;2023-05-09T02:13:17;13.80;99.90
43858;DHT22;29507;51.284;5.758;2023-05-09T02:15:43;13.90;99.90
43858;DHT22;29507;51.284;5.758;2023-05-09T02:18:09;13.90;99.90
43858;DHT22;29507;51.284;5.758;2023-05-09T02:20:35;14.00;99.90
43858;DHT22;29507;51.284;5.758;2023-05-09T02:23:01;14.00;99.90
43858;DHT22;29507;51.284;5.758;2023-05-09T02:25:27;14.00;99.90
43858;DHT22;29507;51.284;5.758;2023-05-09T02:27:54;14.10;99.90
43858;DHT22;29507;51.284;5.758;2023-05-09T02:30:23;14.10;99.90
43858;DHT22;29507;51.284;5.758;2023-05-09T02:32:55;14.10;99.90
43858;DHT22;29507;51.284;5.758;2023-05-09T02:35:22;14.10;99.90
43858;DHT22;29507;51.284;5.758;2023-05-09T02:37:49;14.00;99.90
43858;DHT22;29507;51.284;5.758;2023-05-09T02:40:15;14.00;99.90
43858;DHT22;29507;51.284;5.758;2023-05-09T02:42:41;13.90;99.90
43858;DHT22;29507;51.284;5.758;2023-05-09T02:45:07;13.90;99.90
43858;DHT22;29507;51.284;5.758;2023-05-09T02:47:34;13.80;99.90
43858;DHT22;29507;51.284;5.758;2023-05-09T02:50:00;13.80;99.90
43858;DHT22;29507;51.284;5.758;2023-05-09T02:52:26;13.80;99.90
43858;DHT22;29507;51.284;5.758;2023-05-09T02:54:51;13.80;99.90
43858;DHT22;29507;51.284;5.758;2023-05-09T02:57:17;13.80;99.90
43858;DHT22;29507;51.284;5.758;2023-05-09T02:59:42;13.80;99.90
43858;DHT22;29507;51.284;5.758;2023-05-09T03:02:08;13.70;99.90
43858;DHT22;29507;51.284;5.758;2023-05-09T03:04:34;13.70;99.90
43858;DHT22;29507;51.284;5.758;2023-05-09T03:06:59;13.80;99.90
43858;DHT22;29507;51.284;5.758;2023-05-09T03:09:25;13.80;99.90
43858;DHT22;29507;51.284;5.758;2023-05-09T03:11:50;13.80;99.90
43858;DHT22;29507;51.284;5.758;2023-05-09T03:14:16;13.80;99.90
43858;DHT22;29507;51.284;5.758;2023-05-09T03:16:41;13.80;99.90
43858;DHT22;29507;51.284;5.758;2023-05-09T03:19:07;13.80;99.90
43858;DHT22;29507;51.284;5.758;2023-05-09T03:21:33;13.70;99.90
43858;DHT22;29507;51.284;5.758;2023-05-09T03:23:58;13.70;99.90
43858;DHT22;29507;51.284;5.758;2023-05-09T03:26:24;13.70;99.90
43858;DHT22;29507;51.284;5.758;2023-05-09T03:28:50;13.60;99.90
43858;DHT22;29507;51.284;5.758;2023-05-09T03:31:16;13.60;99.90
43858;DHT22;29507;51.284;5.758;2023-05-09T03:33:42;13.60;99.90
43858;DHT22;29507;51.284;5.758;2023-05-09T03:36:07;13.60;99.90
43858;DHT22;29507;51.284;5.758;2023-05-09T03:38:33;13.50;99.90
43858;DHT22;29507;51.284;5.758;2023-05-09T03:40:59;13.50;99.90
43858;DHT22;29507;51.284;5.758;2023-05-09T03:43:24;13.40;99.90
43858;DHT22;29507;51.284;5.758;2023-05-09T03:45:50;13.40;99.90
43858;DHT22;29507;51.284;5.758;2023-05-09T03:48:16;13.40;99.90
43858;DHT22;29507;51.284;5.758;2023-05-09T03:50:41;13.40;99.90
43858;DHT22;29507;51.284;5.758;2023-05-09T03:53:07;13.40;99.90
43858;DHT22;29507;51.284;5.758;2023-05-09T03:55:33;13.40;99.90
43858;DHT22;29507;51.284;5.758;2023-05-09T03:57:58;13.40;99.90
43858;DHT22;29507;51.284;5.758;2023-05-09T04:00:24;13.40;99.90
43858;DHT22;29507;51.284;5.758;2023-05-09T04:02:51;13.40;99.90
43858;DHT22;29507;51.284;5.758;2023-05-09T04:05:17;13.40;99.90
43858;DHT22;29507;51.284;5.758;2023-05-09T04:07:43;13.40;99.90
43858;DHT22;29507;51.284;5.758;2023-05-09T04:10:08;13.40;99.90
43858;DHT22;29507;51.284;5.758;2023-05-09T04:12:34;13.40;99.90
43858;DHT22;29507;51.284;5.758;2023-05-09T04:15:00;13.50;99.90
43858;DHT22;29507;51.284;5.758;2023-05-09T04:17:25;13.50;99.90
43858;DHT22;29507;51.284;5.758;2023-05-09T04:19:51;13.50;99.90
43858;DHT22;29507;51.284;5.758;2023-05-09T04:22:17;13.60;99.90
43858;DHT22;29507;51.284;5.758;2023-05-09T04:24:42;13.60;99.90
43858;DHT22;29507;51.284;5.758;2023-05-09T04:27:08;13.60;99.90
43858;DHT22;29507;51.284;5.758;2023-05-09T04:29:34;13.70;99.90
43858;DHT22;29507;51.284;5.758;2023-05-09T04:32:00;13.70;99.90
43858;DHT22;29507;51.284;5.758;2023-05-09T04:34:26;13.70;99.90
43858;DHT22;29507;51.284;5.758;2023-05-09T04:36:52;13.80;99.90
43858;DHT22;29507;51.284;5.758;2023-05-09T04:39:18;13.80;99.90
43858;DHT22;29507;51.284;5.758;2023-05-09T04:41:44;13.90;99.90
43858;DHT22;29507;51.284;5.758;2023-05-09T04:44:12;14.00;99.90
43858;DHT22;29507;51.284;5.758;2023-05-09T04:46:38;14.10;99.90
43858;DHT22;29507;51.284;5.758;2023-05-09T04:49:04;14.20;99.90
43858;DHT22;29507;51.284;5.758;2023-05-09T04:51:29;14.30;99.90
43858;DHT22;29507;51.284;5.758;2023-05-09T04:53:55;14.40;99.90
43858;DHT22;29507;51.284;5.758;2023-05-09T04:56:20;14.50;99.90
43858;DHT22;29507;51.284;5.758;2023-05-09T04:58:47;14.60;99.90
43858;DHT22;29507;51.284;5.758;2023-05-09T05:01:13;14.70;99.90
43858;DHT22;29507;51.284;5.758;2023-05-09T05:03:39;14.70;99.90
43858;DHT22;29507;51.284;5.758;2023-05-09T05:06:05;14.80;99.90
43858;DHT22;29507;51.284;5.758;2023-05-09T05:08:31;14.80;99.90
43858;DHT22;29507;51.284;5.758;2023-05-09T05:10:56;14.90;99.90
43858;DHT22;29507;51.284;5.758;2023-05-09T05:13:22;14.90;99.90
43858;DHT22;29507;51.284;5.758;2023-05-09T05:15:48;15.00;99.90
43858;DHT22;29507;51.284;5.758;2023-05-09T05:18:14;15.00;99.90
43858;DHT22;29507;51.284;5.758;2023-05-09T05:20:40;15.00;99.90
43858;DHT22;29507;51.284;5.758;2023-05-09T05:23:07;15.00;99.90
43858;DHT22;29507;51.284;5.758;2023-05-09T05:25:33;15.00;99.90
43858;DHT22;29507;51.284;5.758;2023-05-09T05:27:58;15.10;99.90
43858;DHT22;29507;51.284;5.758;2023-05-09T05:30:24;15.00;99.90
43858;DHT22;29507;51.284;5.758;2023-05-09T05:32:50;15.00;99.90
43858;DHT22;29507;51.284;5.758;2023-05-09T05:35:15;15.10;99.90
43858;DHT22;29507;51.284;5.758;2023-05-09T05:37:41;15.10;99.90
43858;DHT22;29507;51.284;5.758;2023-05-09T05:40:08;15.20;99.90
43858;DHT22;29507;51.284;5.758;2023-05-09T05:42:34;15.30;99.90
43858;DHT22;29507;51.284;5.758;2023-05-09T05:45:00;15.30;99.90
43858;DHT22;29507;51.284;5.758;2023-05-09T05:47:32;15.40;99.90
43858;DHT22;29507;51.284;5.758;2023-05-09T05:49:59;15.50;99.90
43858;DHT22;29507;51.284;5.758;2023-05-09T05:52:24;15.60;99.90
43858;DHT22;29507;51.284;5.758;2023-05-09T05:54:54;15.70;99.90
43858;DHT22;29507;51.284;5.758;2023-05-09T05:57:20;15.90;99.90
43858;DHT22;29507;51.284;5.758;2023-05-09T05:59:47;16.00;99.90
43858;DHT22;29507;51.284;5.758;2023-05-09T06:02:13;16.10;99.90
43858;DHT22;29507;51.284;5.758;2023-05-09T06:04:38;16.20;99.90
43858;DHT22;29507;51.284;5.758;2023-05-09T06:07:04;16.30;99.90
43858;DHT22;29507;51.284;5.758;2023-05-09T06:09:30;16.30;99.90
43858;DHT22;29507;51.284;5.758;2023-05-09T06:11:56;16.40;99.90
43858;DHT22;29507;51.284;5.758;2023-05-09T06:14:21;16.40;99.90
43858;DHT22;29507;51.284;5.758;2023-05-09T06:16:47;16.50;99.90
43858;DHT22;29507;51.284;5.758;2023-05-09T06:19:13;16.60;99.90
43858;DHT22;29507;51.284;5.758;2023-05-09T06:21:38;16.70;99.90
43858;DHT22;29507;51.284;5.758;2023-05-09T06:24:04;16.90;99.90
43858;DHT22;29507;51.284;5.758;2023-05-09T06:26:30;17.00;99.90
43858;DHT22;29507;51.284;5.758;2023-05-09T06:28:55;17.30;99.90
43858;DHT22;29507;51.284;5.758;2023-05-09T06:31:21;17.70;99.90
43858;DHT22;29507;51.284;5.758;2023-05-09T06:33:46;18.20;99.90
43858;DHT22;29507;51.284;5.758;2023-05-09T06:36:12;18.70;99.90
43858;DHT22;29507;51.284;5.758;2023-05-09T06:38:38;19.10;99.90
43858;DHT22;29507;51.284;5.758;2023-05-09T06:41:03;19.30;99.90
43858;DHT22;29507;51.284;5.758;2023-05-09T06:43:29;19.50;99.90
43858;DHT22;29507;51.284;5.758;2023-05-09T06:45:55;19.70;99.90
43858;DHT22;29507;51.284;5.758;2023-05-09T06:48:20;19.80;99.90
43858;DHT22;29507;51.284;5.758;2023-05-09T06:50:48;19.90;99.90
43858;DHT22;29507;51.284;5.758;2023-05-09T06:53:14;19.80;99.90
43858;DHT22;29507;51.284;5.758;2023-05-09T06:55:40;19.60;99.90
43858;DHT22;29507;51.284;5.758;2023-05-09T06:58:05;19.50;99.90
43858;DHT22;29507;51.284;5.758;2023-05-09T07:00:31;19.40;99.90
43858;DHT22;29507;51.284;5.758;2023-05-09T07:02:56;19.20;99.90
43858;DHT22;29507;51.284;5.758;2023-05-09T07:05:22;19.00;99.90
43858;DHT22;29507;51.284;5.758;2023-05-09T07:07:48;18.80;99.90
43858;DHT22;29507;51.284;5.758;2023-05-09T07:10:13;18.50;99.90
43858;DHT22;29507;51.284;5.758;2023-05-09T07:12:39;18.50;99.90
43858;DHT22;29507;51.284;5.758;2023-05-09T07:15:05;18.50;99.90
43858;DHT22;29507;51.284;5.758;2023-05-09T07:17:31;18.40;99.90
43858;DHT22;29507;51.284;5.758;2023-05-09T07:19:57;18.40;99.90
43858;DHT22;29507;51.284;5.758;2023-05-09T07:22:23;18.30;99.90
43858;DHT22;29507;51.284;5.758;2023-05-09T07:24:48;18.10;99.90
43858;DHT22;29507;51.284;5.758;2023-05-09T07:27:15;18.10;99.90
43858;DHT22;29507;51.284;5.758;2023-05-09T07:29:40;18.00;99.90
43858;DHT22;29507;51.284;5.758;2023-05-09T07:32:06;18.00;99.90
43858;DHT22;29507;51.284;5.758;2023-05-09T07:34:32;18.00;99.90
43858;DHT22;29507;51.284;5.758;2023-05-09T07:36:57;18.00;99.90
43858;DHT22;29507;51.284;5.758;2023-05-09T07:39:23;18.10;99.90
43858;DHT22;29507;51.284;5.758;2023-05-09T07:41:48;18.10;99.90
43858;DHT22;29507;51.284;5.758;2023-05-09T07:44:14;18.20;99.90
43858;DHT22;29507;51.284;5.758;2023-05-09T07:46:40;18.10;99.90
43858;DHT22;29507;51.284;5.758;2023-05-09T07:49:06;17.90;99.90
43858;DHT22;29507;51.284;5.758;2023-05-09T07:51:32;17.70;99.90
43858;DHT22;29507;51.284;5.758;2023-05-09T07:53:58;17.60;99.90
43858;DHT22;29507;51.284;5.758;2023-05-09T07:56:23;17.60;99.90
43858;DHT22;29507;51.284;5.758;2023-05-09T07:58:49;17.70;99.90
43858;DHT22;29507;51.284;5.758;2023-05-09T08:01:15;17.90;99.90
43858;DHT22;29507;51.284;5.758;2023-05-09T08:03:40;18.10;99.90
43858;DHT22;29507;51.284;5.758;2023-05-09T08:06:06;18.30;99.90
43858;DHT22;29507;51.284;5.758;2023-05-09T08:08:32;18.40;99.90
43858;DHT22;29507;51.284;5.758;2023-05-09T08:10:57;18.60;99.90
43858;DHT22;29507;51.284;5.758;2023-05-09T08:13:23;18.60;99.90
43858;DHT22;29507;51.284;5.758;2023-05-09T08:15:49;18.50;99.90
43858;DHT22;29507;51.284;5.758;2023-05-09T08:18:15;18.50;99.90
43858;DHT22;29507;51.284;5.758;2023-05-09T08:20:41;18.50;99.90
43858;DHT22;29507;51.284;5.758;2023-05-09T08:23:07;18.40;99.90
43858;DHT22;29507;51.284;5.758;2023-05-09T08:25:32;18.30;99.90
43858;DHT22;29507;51.284;5.758;2023-05-09T08:27:58;18.10;99.90
43858;DHT22;29507;51.284;5.758;2023-05-09T08:30:24;18.10;99.90
43858;DHT22;29507;51.284;5.758;2023-05-09T08:32:49;18.10;99.90
43858;DHT22;29507;51.284;5.758;2023-05-09T08:35:15;18.30;99.90
43858;DHT22;29507;51.284;5.758;2023-05-09T08:37:41;18.50;99.90
43858;DHT22;29507;51.284;5.758;2023-05-09T08:40:07;18.60;99.90
43858;DHT22;29507;51.284;5.758;2023-05-09T08:42:35;18.60;99.90
43858;DHT22;29507;51.284;5.758;2023-05-09T08:45:07;18.30;99.90
43858;DHT22;29507;51.284;5.758;2023-05-09T08:47:36;18.10;99.90
43858;DHT22;29507;51.284;5.758;2023-05-09T08:50:02;17.90;99.90
43858;DHT22;29507;51.284;5.758;2023-05-09T08:52:32;17.90;99.90
43858;DHT22;29507;51.284;5.758;2023-05-09T08:55:01;17.80;99.90
43858;DHT22;29507;51.284;5.758;2023-05-09T08:57:33;17.70;99.90
43858;DHT22;29507;51.284;5.758;2023-05-09T08:59:59;17.60;99.90
43858;DHT22;29507;51.284;5.758;2023-05-09T09:02:25;17.50;99.90
43858;DHT22;29507;51.284;5.758;2023-05-09T09:04:52;17.40;99.90
43858;DHT22;29507;51.284;5.758;2023-05-09T09:07:19;17.30;99.90
43858;DHT22;29507;51.284;5.758;2023-05-09T09:09:46;17.10;99.90
43858;DHT22;29507;51.284;5.758;2023-05-09T09:12:14;17.00;99.90
43858;DHT22;29507;51.284;5.758;2023-05-09T09:14:44;17.00;99.90
43858;DHT22;29507;51.284;5.758;2023-05-09T09:17:15;16.90;99.90
43858;DHT22;29507;51.284;5.758;2023-05-09T09:19:42;16.80;99.90
43858;DHT22;29507;51.284;5.758;2023-05-09T09:22:12;16.70;99.90
43858;DHT22;29507;51.284;5.758;2023-05-09T09:24:39;16.70;99.90
43858;DHT22;29507;51.284;5.758;2023-05-09T09:27:06;16.70;99.90
43858;DHT22;29507;51.284;5.758;2023-05-09T09:29:32;16.50;99.90
43858;DHT22;29507;51.284;5.758;2023-05-09T09:32:01;16.60;99.90
43858;DHT22;29507;51.284;5.758;2023-05-09T09:34:27;16.60;99.90
43858;DHT22;29507;51.284;5.758;2023-05-09T09:36:53;16.60;99.90
43858;DHT22;29507;51.284;5.758;2023-05-09T09:39:18;16.50;99.90
43858;DHT22;29507;51.284;5.758;2023-05-09T09:41:46;16.60;99.90
43858;DHT22;29507;51.284;5.758;2023-05-09T09:44:13;16.50;99.90
43858;DHT22;29507;51.284;5.758;2023-05-09T09:46:50;16.60;99.90
43858;DHT22;29507;51.284;5.758;2023-05-09T09:49:18;16.60;99.90
43858;DHT22;29507;51.284;5.758;2023-05-09T09:51:43;16.50;99.90
43858;DHT22;29507;51.284;5.758;2023-05-09T09:54:11;16.30;99.90
43858;DHT22;29507;51.284;5.758;2023-05-09T09:56:41;16.20;99.90
43858;DHT22;29507;51.284;5.758;2023-05-09T09:59:12;16.10;99.90
43858;DHT22;29507;51.284;5.758;2023-05-09T10:04:18;15.80;99.90
43858;DHT22;29507;51.284;5.758;2023-05-09T10:07:00;15.70;99.90
43858;DHT22;29507;51.284;5.758;2023-05-09T10:09:27;15.60;99.90
43858;DHT22;29507;51.284;5.758;2023-05-09T10:11:54;15.50;99.90
43858;DHT22;29507;51.284;5.758;2023-05-09T10:14:22;15.50;99.90
43858;DHT22;29507;51.284;5.758;2023-05-09T10:16:50;15.60;99.90
43858;DHT22;29507;51.284;5.758;2023-05-09T10:19:19;15.80;99.90
43858;DHT22;29507;51.284;5.758;2023-05-09T10:21:52;16.00;99.90
43858;DHT22;29507;51.284;5.758;2023-05-09T10:24:33;16.30;99.90
43858;DHT22;29507;51.284;5.758;2023-05-09T10:27:05;16.50;99.90
43858;DHT22;29507;51.284;5.758;2023-05-09T10:29:35;16.40;99.90
43858;DHT22;29507;51.284;5.758;2023-05-09T10:32:14;16.40;99.90
43858;DHT22;29507;51.284;5.758;2023-05-09T10:34:43;16.40;99.90
43858;DHT22;29507;51.284;5.758;2023-05-09T10:37:11;16.30;99.90
43858;DHT22;29507;51.284;5.758;2023-05-09T10:39:38;16.30;99.90
43858;DHT22;29507;51.284;5.758;2023-05-09T10:42:05;16.20;99.90
43858;DHT22;29507;51.284;5.758;2023-05-09T10:44:32;16.10;99.90
43858;DHT22;29507;51.284;5.758;2023-05-09T10:46:58;16.00;99.90
43858;DHT22;29507;51.284;5.758;2023-05-09T10:49:24;15.80;99.90
43858;DHT22;29507;51.284;5.758;2023-05-09T10:51:50;15.50;99.90
43858;DHT22;29507;51.284;5.758;2023-05-09T10:54:42;15.40;99.90
43858;DHT22;29507;51.284;5.758;2023-05-09T10:57:08;15.30;99.90
43858;DHT22;29507;51.284;5.758;2023-05-09T10:59:42;15.30;99.90
43858;DHT22;29507;51.284;5.758;2023-05-09T11:02:17;15.40;99.90
43858;DHT22;29507;51.284;5.758;2023-05-09T11:04:44;15.50;99.90
43858;DHT22;29507;51.284;5.758;2023-05-09T11:07:24;15.50;99.90
43858;DHT22;29507;51.284;5.758;2023-05-09T11:10:13;15.60;99.90
43858;DHT22;29507;51.284;5.758;2023-05-09T11:12:58;15.70;99.90
43858;DHT22;29507;51.284;5.758;2023-05-09T11:15:24;15.70;99.90
43858;DHT22;29507;51.284;5.758;2023-05-09T11:18:06;15.60;99.90
43858;DHT22;29507;51.284;5.758;2023-05-09T11:20:34;15.40;99.90
43858;DHT22;29507;51.284;5.758;2023-05-09T11:23:03;15.20;99.90
43858;DHT22;29507;51.284;5.758;2023-05-09T11:25:29;15.10;99.90
43858;DHT22;29507;51.284;5.758;2023-05-09T11:28:00;15.20;99.90
43858;DHT22;29507;51.284;5.758;2023-05-09T11:30:38;15.10;99.90
43858;DHT22;29507;51.284;5.758;2023-05-09T11:33:05;15.10;99.90
43858;DHT22;29507;51.284;5.758;2023-05-09T11:35:32;15.00;99.90
43858;DHT22;29507;51.284;5.758;2023-05-09T11:40:26;14.80;99.90
43858;DHT22;29507;51.284;5.758;2023-05-09T11:42:54;14.70;99.90
43858;DHT22;29507;51.284;5.758;2023-05-09T11:45:22;14.70;99.90
43858;DHT22;29507;51.284;5.758;2023-05-09T11:47:50;14.70;99.90
43858;DHT22;29507;51.284;5.758;2023-05-09T11:50:17;14.80;99.90
43858;DHT22;29507;51.284;5.758;2023-05-09T11:52:44;14.80;99.90
43858;DHT22;29507;51.284;5.758;2023-05-09T11:55:12;14.90;99.90
43858;DHT22;29507;51.284;5.758;2023-05-09T11:57:45;14.80;99.90
43858;DHT22;29507;51.284;5.758;2023-05-09T12:00:17;14.80;99.90
43858;DHT22;29507;51.284;5.758;2023-05-09T12:02:44;14.70;99.90
43858;DHT22;29507;51.284;5.758;2023-05-09T12:05:12;14.60;99.90
43858;DHT22;29507;51.284;5.758;2023-05-09T12:07:38;14.60;99.90
43858;DHT22;29507;51.284;5.758;2023-05-09T12:10:09;14.50;99.90
43858;DHT22;29507;51.284;5.758;2023-05-09T12:12:45;14.50;99.90
43858;DHT22;29507;51.284;5.758;2023-05-09T12:15:11;14.40;99.90
43858;DHT22;29507;51.284;5.758;2023-05-09T12:17:38;14.30;99.90
43858;DHT22;29507;51.284;5.758;2023-05-09T12:20:04;14.30;99.90
43858;DHT22;29507;51.284;5.758;2023-05-09T12:22:31;14.20;99.90
43858;DHT22;29507;51.284;5.758;2023-05-09T12:25:00;14.20;99.90
43858;DHT22;29507;51.284;5.758;2023-05-09T12:27:27;14.20;99.90
43858;DHT22;29507;51.284;5.758;2023-05-09T12:29:53;14.10;99.90
43858;DHT22;29507;51.284;5.758;2023-05-09T12:32:19;14.10;99.90
43858;DHT22;29507;51.284;5.758;2023-05-09T12:34:45;14.00;99.90
43858;DHT22;29507;51.284;5.758;2023-05-09T12:37:14;13.90;99.90
43858;DHT22;29507;51.284;5.758;2023-05-09T12:39:41;13.90;99.90
43858;DHT22;29507;51.284;5.758;2023-05-09T12:42:12;13.80;99.90
43858;DHT22;29507;51.284;5.758;2023-05-09T12:44:38;13.90;99.90
43858;DHT22;29507;51.284;5.758;2023-05-09T12:47:04;13.90;99.90
43858;DHT22;29507;51.284;5.758;2023-05-09T12:49:30;14.00;99.90
43858;DHT22;29507;51.284;5.758;2023-05-09T12:51:58;14.10;99.90
43858;DHT22;29507;51.284;5.758;2023-05-09T12:54:27;14.10;99.90
43858;DHT22;29507;51.284;5.758;2023-05-09T12:56:54;14.20;99.90
43858;DHT22;29507;51.284;5.758;2023-05-09T12:59:30;14.20;99.90
43858;DHT22;29507;51.284;5.758;2023-05-09T13:01:57;14.10;99.90
43858;DHT22;29507;51.284;5.758;2023-05-09T13:04:25;14.10;99.90
43858;DHT22;29507;51.284;5.758;2023-05-09T13:06:55;14.10;99.90
43858;DHT22;29507;51.284;5.758;2023-05-09T13:09:22;14.00;99.90
43858;DHT22;29507;51.284;5.758;2023-05-09T13:11:50;14.00;99.90
43858;DHT22;29507;51.284;5.758;2023-05-09T13:14:17;14.00;99.90
43858;DHT22;29507;51.284;5.758;2023-05-09T13:16:43;14.00;99.90
43858;DHT22;29507;51.284;5.758;2023-05-09T13:19:09;13.90;99.90
43858;DHT22;29507;51.284;5.758;2023-05-09T13:21:35;14.00;99.90
43858;DHT22;29507;51.284;5.758;2023-05-09T13:24:01;14.10;99.90
43858;DHT22;29507;51.284;5.758;2023-05-09T13:26:27;14.20;99.90
43858;DHT22;29507;51.284;5.758;2023-05-09T13:28:54;14.40;99.90
43858;DHT22;29507;51.284;5.758;2023-05-09T13:31:19;14.50;99.90
43858;DHT22;29507;51.284;5.758;2023-05-09T13:33:45;14.50;99.90
43858;DHT22;29507;51.284;5.758;2023-05-09T13:36:11;14.70;99.90
43858;DHT22;29507;51.284;5.758;2023-05-09T13:38:36;14.80;99.90
43858;DHT22;29507;51.284;5.758;2023-05-09T13:41:05;14.90;99.90
43858;DHT22;29507;51.284;5.758;2023-05-09T13:43:31;15.00;99.90
43858;DHT22;29507;51.284;5.758;2023-05-09T13:45:57;15.10;99.90
43858;DHT22;29507;51.284;5.758;2023-05-09T13:48:22;15.00;99.90
43858;DHT22;29507;51.284;5.758;2023-05-09T13:50:49;14.90;99.90
43858;DHT22;29507;51.284;5.758;2023-05-09T13:53:15;14.90;99.90
43858;DHT22;29507;51.284;5.758;2023-05-09T13:55:40;15.00;99.90
43858;DHT22;29507;51.284;5.758;2023-05-09T13:58:06;14.90;99.90
43858;DHT22;29507;51.284;5.758;2023-05-09T14:00:32;14.90;99.90
43858;DHT22;29507;51.284;5.758;2023-05-09T14:02:58;14.80;99.90
43858;DHT22;29507;51.284;5.758;2023-05-09T14:05:24;14.90;99.90
43858;DHT22;29507;51.284;5.758;2023-05-09T14:07:49;15.00;99.90
43858;DHT22;29507;51.284;5.758;2023-05-09T14:10:15;15.00;99.90
43858;DHT22;29507;51.284;5.758;2023-05-09T14:12:41;15.00;99.90
43858;DHT22;29507;51.284;5.758;2023-05-09T14:15:11;15.00;99.90
43858;DHT22;29507;51.284;5.758;2023-05-09T14:17:37;15.00;99.90
43858;DHT22;29507;51.284;5.758;2023-05-09T14:20:04;14.90;99.90
43858;DHT22;29507;51.284;5.758;2023-05-09T14:22:31;14.90;99.90
43858;DHT22;29507;51.284;5.758;2023-05-09T14:24:57;14.80;99.90
43858;DHT22;29507;51.284;5.758;2023-05-09T14:27:23;14.80;99.90
43858;DHT22;29507;51.284;5.758;2023-05-09T14:29:49;14.80;99.90
43858;DHT22;29507;51.284;5.758;2023-05-09T14:32:14;14.60;99.90
43858;DHT22;29507;51.284;5.758;2023-05-09T14:34:40;14.50;99.90
43858;DHT22;29507;51.284;5.758;2023-05-09T14:37:06;14.40;99.90
43858;DHT22;29507;51.284;5.758;2023-05-09T14:39:42;14.30;99.90
43858;DHT22;29507;51.284;5.758;2023-05-09T14:42:08;14.30;99.90
43858;DHT22;29507;51.284;5.758;2023-05-09T14:44:39;14.20;99.90
43858;DHT22;29507;51.284;5.758;2023-05-09T14:47:05;14.20;99.90
43858;DHT22;29507;51.284;5.758;2023-05-09T14:49:31;14.30;99.90
43858;DHT22;29507;51.284;5.758;2023-05-09T14:51:57;14.40;99.90
43858;DHT22;29507;51.284;5.758;2023-05-09T14:54:22;14.50;99.90
43858;DHT22;29507;51.284;5.758;2023-05-09T14:56:48;14.50;99.90
43858;DHT22;29507;51.284;5.758;2023-05-09T14:59:14;14.40;99.90
43858;DHT22;29507;51.284;5.758;2023-05-09T15:01:39;14.30;99.90
43858;DHT22;29507;51.284;5.758;2023-05-09T15:04:05;14.30;99.90
43858;DHT22;29507;51.284;5.758;2023-05-09T15:06:31;14.30;99.90
43858;DHT22;29507;51.284;5.758;2023-05-09T15:08:56;14.30;99.90
43858;DHT22;29507;51.284;5.758;2023-05-09T15:11:22;14.30;99.90
43858;DHT22;29507;51.284;5.758;2023-05-09T15:13:49;14.20;99.90
43858;DHT22;29507;51.284;5.758;2023-05-09T15:16:15;14.30;99.90
43858;DHT22;29507;51.284;5.758;2023-05-09T15:18:41;14.30;99.90
43858;DHT22;29507;51.284;5.758;2023-05-09T15:21:09;14.40;99.90
43858;DHT22;29507;51.284;5.758;2023-05-09T15:23:35;14.50;99.90
43858;DHT22;29507;51.284;5.758;2023-05-09T15:26:01;14.50;99.90
43858;DHT22;29507;51.284;5.758;2023-05-09T15:28:26;14.40;99.90
43858;DHT22;29507;51.284;5.758;2023-05-09T15:30:52;14.30;99.90
43858;DHT22;29507;51.284;5.758;2023-05-09T15:33:18;14.30;99.90
43858;DHT22;29507;51.284;5.758;2023-05-09T15:35:44;14.20;99.90
43858;DHT22;29507;51.284;5.758;2023-05-09T15:38:10;14.20;99.90
43858;DHT22;29507;51.284;5.758;2023-05-09T15:40:40;14.20;99.90
43858;DHT22;29507;51.284;5.758;2023-05-09T15:43:06;14.30;99.90
43858;DHT22;29507;51.284;5.758;2023-05-09T15:45:32;14.40;99.90
43858;DHT22;29507;51.284;5.758;2023-05-09T15:47:57;14.40;99.90
43858;DHT22;29507;51.284;5.758;2023-05-09T15:50:23;14.50;99.90